Time;durP1;ratioP1;P1;durP2;ratioP2;P2;SDS_P1;SDS_P2;PMS_P1;PMS_P2;Temp;Humidity;BMP_temperature;BMP_pressure;BME280_temperature;BME280_humidity;BME280_pressure;Samples;Min_cycle;Max_cycle;Signal;HPM_P1;HPM_P2
2022/04/20 00:00:52;;;;;;;6.70;4.73;;;8.00;1.00;;;;;;5157878;27;20191;-90
2022/04/20 00:03:24;;;;;;;7.03;5.10;;;7.90;1.00;;;;;;5157918;27;20195;-88
2022/04/20 00:05:54;;;;;;;8.13;5.07;;;8.00;1.00;;;;;;5158388;27;20197;-87
2022/04/20 00:08:25;;;;;;;7.20;5.23;;;8.00;1.00;;;;;;5151504;27;20191;-91
2022/04/20 00:10:56;;;;;;;8.20;4.80;;;8.00;1.00;;;;;;5157784;27;20200;-89
2022/04/20 00:13:27;;;;;;;5.63;4.70;;;8.00;1.00;;;;;;5158184;27;20261;-89
2022/04/20 00:16:01;;;;;;;6.93;4.63;;;8.00;1.00;;;;;;5157854;27;20240;-86
2022/04/20 00:18:35;;;;;;;7.43;4.60;;;8.00;1.00;;;;;;5157172;27;20217;-88
2022/04/20 00:21:03;;;;;;;7.60;4.73;;;8.00;1.00;;;;;;5136543;28;20562;-87
2022/04/20 00:23:35;;;;;;;7.70;4.83;;;8.00;1.00;;;;;;5136269;28;20195;-89
2022/04/20 00:26:05;;;;;;;7.47;5.70;;;8.00;1.00;;;;;;5136372;28;20222;-88
2022/04/20 00:31:31;;;;;;;6.80;5.10;;;8.00;1.00;;;;;;5136393;28;20205;-88
2022/04/20 00:33:59;;;;;;;8.47;5.40;;;7.90;1.00;;;;;;5136895;28;20196;-90
2022/04/20 00:36:39;;;;;;;7.83;5.30;;;8.00;1.00;;;;;;5136351;28;20205;-89
2022/04/20 00:39:10;;;;;;;8.10;5.23;;;8.00;1.00;;;;;;5136297;28;20200;-87
2022/04/20 00:41:43;;;;;;;9.03;5.80;;;7.90;50.90;;;;;;5136264;28;20227;-88
2022/04/20 00:44:22;;;;;;;6.93;4.80;;;8.00;66.20;;;;;;5135533;28;20189;-89
2022/04/20 00:46:59;;;;;;;7.30;5.40;;;7.90;99.90;;;;;;5135573;28;20191;-89
2022/04/20 00:49:29;;;;;;;7.20;5.73;;;7.90;99.90;;;;;;5135863;28;20201;-91
2022/04/20 00:52:06;;;;;;;7.20;5.97;;;7.90;99.90;;;;;;5136568;28;20176;-90
2022/04/20 00:54:34;;;;;;;8.87;5.73;;;7.90;99.90;;;;;;5135840;28;20190;-89
2022/04/20 00:57:07;;;;;;;7.23;5.40;;;7.80;99.90;;;;;;5136365;28;20218;-89
2022/04/20 00:59:38;;;;;;;9.63;5.37;;;7.80;99.90;;;;;;5136306;28;20207;-89
2022/04/20 01:02:09;;;;;;;9.20;5.53;;;7.80;99.90;;;;;;5135688;28;20180;-91
2022/04/20 01:04:42;;;;;;;8.60;5.87;;;7.80;99.90;;;;;;5136080;28;20221;-90
2022/04/20 01:07:15;;;;;;;8.10;5.60;;;7.70;99.90;;;;;;5136163;28;20187;-89
2022/04/20 01:09:44;;;;;;;7.27;5.67;;;7.70;99.90;;;;;;5136403;28;20195;-89
2022/04/20 01:12:17;;;;;;;7.33;5.30;;;7.70;99.90;;;;;;5136120;28;20176;-88
2022/04/20 01:14:56;;;;;;;7.80;5.63;;;7.70;99.90;;;;;;5135599;28;20233;-89
2022/04/20 01:17:24;;;;;;;6.73;5.10;;;7.70;99.90;;;;;;5136428;28;20181;-88
2022/04/20 01:19:53;;;;;;;8.27;5.60;;;7.70;99.90;;;;;;5135983;28;20222;-90
2022/04/20 01:22:27;;;;;;;7.17;5.20;;;7.60;99.90;;;;;;5136222;28;20191;-87
2022/04/20 01:24:57;;;;;;;8.77;5.33;;;7.60;99.90;;;;;;5135063;28;20639;-88
2022/04/20 01:27:27;;;;;;;8.07;4.63;;;7.60;99.90;;;;;;5135658;28;20203;-87
2022/04/20 01:29:55;;;;;;;6.73;5.27;;;7.50;99.90;;;;;;5135649;28;20187;-87
2022/04/20 01:32:24;;;;;;;7.33;5.37;;;7.60;99.90;;;;;;5135568;28;20188;-88
2022/04/20 01:34:52;;;;;;;5.57;4.37;;;7.50;1.00;;;;;;5135413;28;20199;-87
2022/04/20 01:37:26;;;;;;;6.50;4.90;;;7.50;99.90;;;;;;5135290;28;20175;-88
2022/04/20 01:39:55;;;;;;;6.87;4.83;;;7.50;99.90;;;;;;5135486;28;20202;-89
2022/04/20 01:42:26;;;;;;;6.97;5.07;;;7.40;99.90;;;;;;5135620;28;20191;-89
2022/04/20 01:44:56;;;;;;;6.07;4.90;;;7.30;99.90;;;;;;5135265;28;20281;-87
2022/04/20 01:47:28;;;;;;;6.77;4.90;;;7.20;99.90;;;;;;5135501;28;20251;-88
2022/04/20 01:49:59;;;;;;;7.80;4.90;;;7.20;99.90;;;;;;5136362;28;20199;-89
2022/04/20 01:52:30;;;;;;;9.00;5.30;;;7.10;99.90;;;;;;5135802;28;20239;-89
2022/04/20 01:55:14;;;;;;;6.40;4.90;;;7.10;99.90;;;;;;5135489;28;20202;-86
2022/04/20 01:57:42;;;;;;;6.50;4.90;;;7.00;99.90;;;;;;5138267;28;20199;-88
2022/04/20 02:00:13;;;;;;;7.43;4.70;;;6.90;99.90;;;;;;5140564;28;20226;-89
2022/04/20 02:02:40;;;;;;;7.97;4.77;;;6.90;99.90;;;;;;5139415;28;20191;-88
2022/04/20 02:05:10;;;;;;;6.33;4.83;;;6.90;99.90;;;;;;5139083;28;20203;-89
2022/04/20 02:07:38;;;;;;;6.50;4.80;;;6.90;99.90;;;;;;5139857;28;20199;-89
2022/04/20 02:10:12;;;;;;;8.00;4.63;;;6.90;99.90;;;;;;5139671;28;20190;-89
2022/04/20 02:12:46;;;;;;;6.63;4.83;;;6.80;1.00;;;;;;5139861;28;20198;-89
2022/04/20 02:15:16;;;;;;;7.50;5.03;;;6.80;1.00;;;;;;5150934;27;20233;-88
2022/04/20 02:17:56;;;;;;;7.50;4.67;;;6.70;1.00;;;;;;5160855;27;20174;-88
2022/04/20 02:20:27;;;;;;;6.93;5.00;;;6.70;1.00;;;;;;5160993;27;20217;-87
2022/04/20 02:23:03;;;;;;;7.40;5.43;;;6.60;1.00;;;;;;5160939;27;20205;-88
2022/04/20 02:25:36;;;;;;;6.17;4.83;;;6.60;1.00;;;;;;5159762;27;20200;-90
2022/04/20 02:28:04;;;;;;;7.07;4.70;;;6.60;1.00;;;;;;5159328;27;20211;-88
2022/04/20 02:30:32;;;;;;;6.47;4.70;;;6.60;1.00;;;;;;5160323;27;20277;-87
2022/04/20 02:33:00;;;;;;;6.43;4.50;;;6.60;1.00;;;;;;5159330;27;20189;-87
2022/04/20 02:35:31;;;;;;;9.33;4.80;;;6.70;1.00;;;;;;5159981;27;20198;-88
2022/04/20 02:38:03;;;;;;;7.03;4.67;;;6.70;1.00;;;;;;5159252;27;20278;-87
2022/04/20 02:40:41;;;;;;;8.13;4.37;;;6.80;1.00;;;;;;5159724;27;20222;-89
2022/04/20 02:43:19;;;;;;;5.97;4.20;;;6.90;1.00;;;;;;5159417;27;20228;-91
2022/04/20 02:45:49;;;;;;;6.50;4.37;;;6.90;1.00;;;;;;5159308;27;20208;-88
2022/04/20 02:48:17;;;;;;;6.07;4.87;;;6.90;1.00;;;;;;5159360;27;20205;-88
2022/04/20 02:50:46;;;;;;;7.57;5.00;;;7.00;1.00;;;;;;5159532;27;20262;-90
2022/04/20 02:53:16;;;;;;;7.90;4.73;;;7.00;1.00;;;;;;5159295;27;20202;-89
2022/04/20 02:58:38;;;;;;;7.30;5.03;;;7.00;1.00;;;;;;5158124;27;20194;-89
2022/04/20 03:01:15;;;;;;;6.37;4.73;;;7.10;1.00;;;;;;5160049;27;20199;-87
2022/04/20 03:03:45;;;;;;;6.53;4.70;;;7.10;1.00;;;;;;5160352;27;20206;-89
2022/04/20 03:06:13;;;;;;;7.27;5.00;;;7.10;1.00;;;;;;5160168;27;20182;-87
2022/04/20 03:08:47;;;;;;;9.70;5.00;;;7.10;1.00;;;;;;5159513;27;20217;-87
2022/04/20 03:11:19;;;;;;;8.03;5.30;;;7.10;1.00;;;;;;5160143;27;20293;-88
2022/04/20 03:13:47;;;;;;;7.77;5.07;;;7.10;1.00;;;;;;5159916;27;20202;-89
2022/04/20 03:16:17;;;;;;;8.07;4.93;;;7.10;1.00;;;;;;5159571;27;20218;-90
2022/04/20 03:18:50;;;;;;;8.70;5.77;;;7.10;1.00;;;;;;5159775;27;20194;-86
2022/04/20 03:21:31;;;;;;;10.13;5.80;;;7.10;1.00;;;;;;5159636;27;20194;-87
2022/04/20 03:24:02;;;;;;;9.50;5.30;;;7.10;1.00;;;;;;5159290;27;20215;-89
2022/04/20 03:26:50;;;;;;;7.13;4.90;;;7.10;1.00;;;;;;5159974;27;20201;-87
2022/04/20 03:29:24;;;;;;;8.03;5.30;;;7.10;1.00;;;;;;5159331;27;20194;-91
2022/04/20 03:31:55;;;;;;;7.23;4.87;;;7.10;1.00;;;;;;5158178;27;20203;-87
2022/04/20 03:34:22;;;;;;;6.23;4.87;;;7.10;1.00;;;;;;5157931;27;20281;-90
2022/04/20 03:36:52;;;;;;;7.10;5.00;;;7.20;1.00;;;;;;5158433;27;20201;-90
2022/04/20 03:39:25;;;;;;;9.57;5.13;;;7.20;1.00;;;;;;5158459;27;20207;-92
2022/04/20 03:44:49;;;;;;;5.53;4.20;;;7.30;1.00;;;;;;5156058;27;20198;-91
2022/04/20 03:47:20;;;;;;;8.63;4.90;;;7.30;1.00;;;;;;5158848;27;20191;-87
2022/04/20 03:49:50;;;;;;;7.50;4.83;;;7.30;1.00;;;;;;5158407;27;20178;-90
2022/04/20 03:52:20;;;;;;;9.30;4.90;;;7.30;1.00;;;;;;5158914;27;20171;-91
2022/04/20 03:54:48;;;;;;;7.57;5.20;;;7.40;1.00;;;;;;5157197;27;20208;-88
2022/04/20 03:57:18;;;;;;;8.97;5.03;;;7.40;1.00;;;;;;5157983;27;20203;-89
2022/04/20 03:59:46;;;;;;;6.20;5.00;;;7.40;1.00;;;;;;5157402;27;20195;-90
2022/04/20 04:02:19;;;;;;;5.83;4.40;;;7.50;1.00;;;;;;5157300;27;20193;-88
2022/04/20 04:04:53;;;;;;;6.77;4.57;;;7.50;1.00;;;;;;5158068;27;20192;-89
2022/04/20 04:07:24;;;;;;;7.93;4.77;;;7.50;1.00;;;;;;5157874;27;20199;-88
2022/04/20 04:09:54;;;;;;;8.30;4.60;;;7.50;1.00;;;;;;5157832;27;20251;-89
2022/04/20 04:12:24;;;;;;;9.23;4.43;;;7.50;1.00;;;;;;5153079;27;20283;-86
2022/04/20 04:14:52;;;;;;;10.33;5.07;;;7.50;1.00;;;;;;5137837;27;20246;-86
2022/04/20 04:17:19;;;;;;;10.60;6.93;;;7.60;1.00;;;;;;5138088;27;20201;-88
2022/04/20 04:19:46;;;;;;;9.30;6.83;;;7.60;1.00;;;;;;5134306;27;20275;-86
2022/04/20 04:22:13;;;;;;;9.80;7.20;;;7.60;1.00;;;;;;5134181;27;20187;-86
2022/04/20 04:24:40;;;;;;;10.93;7.77;;;7.60;1.00;;;;;;5134293;27;20287;-85
2022/04/20 04:27:10;;;;;;;12.47;7.77;;;7.60;1.00;;;;;;5133960;27;20201;-84
2022/04/20 04:29:39;;;;;;;10.77;7.50;;;7.60;1.00;;;;;;5134061;27;20226;-85
2022/04/20 04:32:07;;;;;;;12.63;7.97;;;7.70;1.00;;;;;;5133981;27;20196;-87
2022/04/20 04:34:35;;;;;;;11.40;7.67;;;7.70;1.00;;;;;;5133807;27;20269;-87
2022/04/20 04:37:02;;;;;;;15.93;8.53;;;7.70;1.00;;;;;;5133539;27;20199;-86
2022/04/20 04:39:29;;;;;;;12.37;7.83;;;7.70;1.00;;;;;;5133731;27;20728;-86
2022/04/20 04:42:00;;;;;;;13.17;7.87;;;7.70;1.00;;;;;;5133769;27;20195;-85
2022/04/20 04:44:27;;;;;;;15.43;8.90;;;7.70;1.00;;;;;;5133339;27;20258;-86
2022/04/20 04:49:40;;;;;;;12.00;7.47;;;7.70;1.00;;;;;;5133742;27;20186;-85
2022/04/20 04:52:11;;;;;;;13.13;6.97;;;7.70;1.00;;;;;;5133576;27;20247;-85
2022/04/20 04:54:40;;;;;;;12.60;6.73;;;7.80;1.00;;;;;;5133353;27;20266;-86
2022/04/20 04:57:08;;;;;;;10.83;6.33;;;7.80;1.00;;;;;;5132798;27;20187;-86
2022/04/20 04:59:37;;;;;;;8.40;5.30;;;7.80;1.00;;;;;;5133061;27;20216;-86
2022/04/20 05:02:06;;;;;;;15.07;5.47;;;7.80;1.00;;;;;;5133457;27;20246;-87
2022/04/20 05:04:33;;;;;;;9.37;5.30;;;7.80;1.00;;;;;;5132925;27;20194;-86
2022/04/20 05:07:00;;;;;;;7.20;5.07;;;7.90;1.00;;;;;;5133978;27;20198;-86
2022/04/20 05:09:30;;;;;;;6.73;4.90;;;7.90;1.00;;;;;;5154415;27;20196;-86
2022/04/20 05:12:10;;;;;;;8.40;4.67;;;7.90;1.00;;;;;;5157804;27;20191;-89
2022/04/20 05:14:47;;;;;;;15.77;5.80;;;7.90;1.00;;;;;;5156928;27;20200;-86
2022/04/20 05:20:19;;;;;;;8.40;5.10;;;8.00;1.00;;;;;;5153573;28;20205;-94
2022/04/20 05:22:47;;;;;;;10.17;4.80;;;8.00;1.00;;;;;;5157657;27;20191;-89
2022/04/20 05:25:16;;;;;;;6.53;4.60;;;8.10;1.00;;;;;;5157402;28;20194;-89
2022/04/20 05:27:48;;;;;;;5.73;4.23;;;8.10;1.00;;;;;;5157508;28;20206;-91
2022/04/20 05:30:16;;;;;;;14.43;5.17;;;8.10;1.00;;;;;;5156869;27;20197;-91
2022/04/20 05:32:48;;;;;;;7.93;4.87;;;8.20;1.00;;;;;;5161257;27;20225;-88
2022/04/20 05:35:18;;;;;;;7.10;4.47;;;8.30;1.00;;;;;;5161284;27;20201;-89
2022/04/20 05:43:21;;;;;;;7.37;5.03;;;8.40;1.00;;;;;;5161140;27;20195;-89
2022/04/20 05:45:50;;;;;;;6.17;4.60;;;8.30;1.00;;;;;;5160946;27;20200;-87
2022/04/20 05:48:19;;;;;;;6.10;4.50;;;8.40;1.00;;;;;;5160482;27;20219;-88
2022/04/20 05:50:49;;;;;;;6.67;4.90;;;8.40;1.00;;;;;;5160814;27;20200;-89
2022/04/20 05:53:25;;;;;;;8.33;4.90;;;8.40;1.00;;;;;;5161018;27;20197;-90
2022/04/20 05:55:56;;;;;;;6.47;4.93;;;8.40;1.00;;;;;;5160113;27;20255;-89
2022/04/20 05:58:24;;;;;;;9.27;4.93;;;8.40;1.00;;;;;;5160451;27;20178;-88
2022/04/20 06:00:55;;;;;;;9.20;4.93;;;8.40;1.00;;;;;;5159979;27;20305;-88
2022/04/20 06:03:28;;;;;;;11.50;6.20;;;8.40;1.00;;;;;;5160319;27;20226;-92
2022/04/20 06:05:59;;;;;;;12.33;6.63;;;8.30;1.00;;;;;;5159584;27;20185;-92
2022/04/20 06:08:27;;;;;;;11.17;6.60;;;8.30;1.00;;;;;;5159956;27;20227;-87
2022/04/20 06:10:55;;;;;;;12.63;7.77;;;8.30;1.00;;;;;;5160869;27;20180;-89
2022/04/20 06:13:23;;;;;;;9.90;6.13;;;8.30;1.00;;;;;;5160286;27;20183;-93
2022/04/20 06:15:57;;;;;;;8.00;5.10;;;8.30;1.00;;;;;;5160993;27;20224;-89
2022/04/20 06:18:32;;;;;;;7.60;5.03;;;8.30;1.00;;;;;;5160107;27;20201;-90
2022/04/20 06:21:05;;;;;;;7.40;5.10;;;8.20;1.00;;;;;;5160057;27;20220;-91
2022/04/20 06:23:33;;;;;;;9.03;4.90;;;8.30;1.00;;;;;;5159581;27;20200;-92
2022/04/20 06:26:11;;;;;;;7.87;5.10;;;8.20;1.00;;;;;;5159968;27;20198;-90
2022/04/20 06:28:49;;;;;;;7.13;4.80;;;8.20;1.00;;;;;;5160256;27;20193;-90
2022/04/20 06:31:17;;;;;;;6.00;5.00;;;8.20;1.00;;;;;;5160041;27;20201;-89
2022/04/20 06:33:46;;;;;;;7.70;5.10;;;8.10;1.00;;;;;;5160246;27;20193;-89
2022/04/20 06:36:19;;;;;;;48.67;24.03;;;8.20;1.00;;;;;;5159783;27;20186;-92
2022/04/20 06:38:51;;;;;;;6.63;5.10;;;8.10;1.00;;;;;;5161191;27;20215;-90
2022/04/20 06:41:23;;;;;;;6.40;4.37;;;8.10;1.00;;;;;;5160359;27;20241;-93
2022/04/20 06:43:51;;;;;;;6.80;4.90;;;8.10;1.00;;;;;;5159375;27;20199;-93
2022/04/20 06:46:21;;;;;;;6.90;4.90;;;8.10;1.00;;;;;;5159863;27;20188;-88
2022/04/20 06:48:53;;;;;;;8.07;5.23;;;8.10;1.00;;;;;;5159430;27;20219;-90
2022/04/20 06:51:24;;;;;;;7.70;4.77;;;8.10;1.00;;;;;;5159439;27;20197;-88
2022/04/20 06:59:28;;;;;;;9.00;4.93;;;8.10;1.00;;;;;;5159739;27;20172;-90
2022/04/20 07:01:59;;;;;;;7.83;5.20;;;8.10;1.00;;;;;;5159488;27;20220;-89
2022/04/20 07:04:29;;;;;;;31.87;17.20;;;8.20;11.00;;;;;;5159951;27;20198;-90
2022/04/20 07:06:59;;;;;;;7.00;5.80;;;8.20;37.90;;;;;;5159202;27;20197;-90
2022/04/20 07:09:30;;;;;;;14.30;9.37;;;8.30;21.20;;;;;;5159529;27;20185;-87
2022/04/20 07:12:10;;;;;;;19.83;12.40;;;8.40;46.70;;;;;;5159041;27;20201;-90
2022/04/20 07:14:44;;;;;;;20.43;12.40;;;8.40;28.90;;;;;;5159527;27;20221;-88
2022/04/20 07:17:15;;;;;;;15.83;10.73;;;8.50;12.10;;;;;;5159553;27;20281;-91
2022/04/20 07:19:53;;;;;;;10.53;5.63;;;8.50;11.20;;;;;;5159635;27;20209;-90
2022/04/20 07:22:33;;;;;;;10.93;6.60;;;8.50;34.80;;;;;;5159306;27;20248;-91
2022/04/20 07:25:08;;;;;;;7.47;5.17;;;8.60;20.40;;;;;;5160363;27;20162;-92
2022/04/20 07:27:55;;;;;;;11.57;6.07;;;8.60;45.60;;;;;;5159254;27;20193;-87
2022/04/20 07:30:29;;;;;;;9.80;5.30;;;8.70;33.00;;;;;;5159643;27;20202;-92
2022/04/20 07:33:16;;;;;;;9.30;5.77;;;8.70;22.00;;;;;;5159438;27;20161;-91
2022/04/20 07:35:52;;;;;;;17.93;10.87;;;8.70;47.40;;;;;;5159947;27;20182;-92
2022/04/20 07:38:27;;;;;;;10.73;5.60;;;8.80;99.90;;;;;;5159897;27;20190;-90
2022/04/20 07:41:00;;;;;;;13.63;7.07;;;8.90;36.00;;;;;;5159031;27;20209;-88
2022/04/20 07:43:32;;;;;;;18.10;10.47;;;8.90;19.30;;;;;;5159733;27;20202;-91
2022/04/20 07:46:03;;;;;;;17.03;9.63;;;8.90;94.50;;;;;;5159892;27;20184;-90
2022/04/20 07:48:41;;;;;;;11.37;6.43;;;9.00;99.90;;;;;;5159274;27;20178;-90
2022/04/20 07:51:13;;;;;;;43.77;20.93;;;9.10;99.90;;;;;;5159716;27;20174;-91
2022/04/20 07:53:52;;;;;;;11.17;6.07;;;9.20;99.90;;;;;;5158875;27;20235;-92
2022/04/20 07:56:20;;;;;;;16.83;9.37;;;9.30;99.90;;;;;;5159588;27;20182;-91
2022/04/20 08:01:34;;;;;;;11.03;6.57;;;9.50;99.90;;;;;;5158755;27;20217;-92
2022/04/20 08:04:04;;;;;;;12.37;6.90;;;9.50;99.90;;;;;;5158589;27;20191;-90
2022/04/20 08:06:36;;;;;;;23.20;11.37;;;9.60;99.90;;;;;;5158472;27;20222;-89
2022/04/20 08:09:08;;;;;;;12.37;6.40;;;9.80;99.90;;;;;;5158440;27;20260;-90
2022/04/20 08:11:40;;;;;;;17.73;8.83;;;9.90;99.90;;;;;;5158183;27;20619;-90
2022/04/20 08:14:16;;;;;;;10.70;5.47;;;10.10;99.90;;;;;;5158580;27;20204;-92
2022/04/20 08:16:52;;;;;;;11.57;6.20;;;10.20;99.90;;;;;;5158458;27;20201;-91
2022/04/20 08:19:26;;;;;;;12.80;6.37;;;10.40;99.90;;;;;;5158140;27;20222;-90
2022/04/20 08:21:56;;;;;;;8.00;4.93;;;10.40;85.30;;;;;;5158238;27;20209;-91
2022/04/20 08:24:27;;;;;;;10.27;6.20;;;10.50;1.00;;;;;;5158147;27;20197;-90
2022/04/20 08:26:59;;;;;;;8.73;5.07;;;10.50;1.00;;;;;;5158544;27;20197;-90
2022/04/20 08:29:31;;;;;;;8.17;5.63;;;10.50;1.00;;;;;;5158437;27;20176;-90
2022/04/20 08:32:05;;;;;;;11.67;7.53;;;10.40;1.00;;;;;;5157129;27;20217;-91
2022/04/20 08:34:35;;;;;;;7.30;4.90;;;10.30;1.00;;;;;;5158100;27;20269;-89
2022/04/20 08:37:10;;;;;;;10.17;5.37;;;10.30;1.00;;;;;;5157536;27;20666;-90
2022/04/20 08:39:58;;;;;;;9.33;5.27;;;10.20;1.00;;;;;;5157678;27;20191;-92
2022/04/20 08:42:36;;;;;;;14.17;8.17;;;10.20;1.00;;;;;;5156693;27;20230;-90
2022/04/20 08:45:10;;;;;;;11.47;7.60;;;10.30;1.00;;;;;;5157152;27;20229;-91
2022/04/20 08:47:49;;;;;;;8.00;5.50;;;10.30;1.00;;;;;;5157113;27;20198;-92
2022/04/20 08:50:40;;;;;;;9.13;5.93;;;10.40;1.00;;;;;;5156807;27;20194;-89
2022/04/20 08:53:16;;;;;;;11.63;7.90;;;10.50;1.00;;;;;;5156866;27;20195;-90
2022/04/20 08:57:15;;;;;;;7.23;4.60;;;10.40;1.00;;;;;;5156450;27;20200;-91
2022/04/20 08:59:00;;;;;;;9.23;6.10;;;10.50;1.00;;;;;;5157496;27;20176;-92
2022/04/20 09:01:32;;;;;;;16.43;9.53;;;10.50;1.00;;;;;;5157743;27;20204;-91
2022/04/20 09:04:07;;;;;;;10.30;6.83;;;10.50;1.00;;;;;;5157938;27;20196;-89
2022/04/20 09:06:37;;;;;;;9.77;5.53;;;10.40;1.00;;;;;;5157753;27;20210;-91
2022/04/20 09:09:06;;;;;;;12.07;7.10;;;10.30;1.00;;;;;;5157249;27;20187;-91
2022/04/20 09:11:49;;;;;;;11.10;6.53;;;10.20;1.00;;;;;;5157236;27;20251;-92
2022/04/20 09:14:22;;;;;;;12.50;6.40;;;10.10;1.00;;;;;;5156468;27;20174;-91
2022/04/20 09:16:57;;;;;;;25.80;13.63;;;10.10;1.00;;;;;;5172214;27;20191;-89
2022/04/20 09:19:26;;;;;;;17.73;9.20;;;10.00;1.00;;;;;;5156395;27;20216;-91
2022/04/20 09:22:00;;;;;;;9.60;6.97;;;10.00;1.00;;;;;;5156705;28;20219;-90
2022/04/20 09:24:31;;;;;;;11.33;7.40;;;10.00;1.00;;;;;;5157081;28;20190;-92
2022/04/20 09:27:01;;;;;;;11.47;7.27;;;10.00;1.00;;;;;;5156977;28;20204;-89
2022/04/20 09:29:31;;;;;;;11.87;7.57;;;9.90;1.00;;;;;;5156865;28;20213;-90
2022/04/20 09:31:59;;;;;;;12.07;7.80;;;9.90;1.00;;;;;;5156448;28;20187;-92
2022/04/20 09:34:53;;;;;;;11.50;7.80;;;9.90;1.00;;;;;;5156599;28;20172;-91
2022/04/20 09:37:33;;;;;;;12.70;8.67;;;10.00;1.00;;;;;;5156920;28;20184;-90
2022/04/20 09:40:05;;;;;;;11.87;7.67;;;10.00;1.00;;;;;;5157300;28;20208;-91
2022/04/20 09:42:39;;;;;;;11.97;8.13;;;10.10;1.00;;;;;;5156743;28;20218;-91
2022/04/20 09:45:14;;;;;;;10.23;8.53;;;10.30;19.50;;;;;;5156847;28;20222;-91
2022/04/20 09:50:32;;;;;;;9.27;8.17;;;10.50;1.00;;;;;;5156878;28;20272;-91
2022/04/20 09:53:12;;;;;;;13.63;8.90;;;10.50;1.00;;;;;;5156560;28;20204;-90
2022/04/20 09:55:43;;;;;;;13.50;10.27;;;10.40;1.00;;;;;;5155405;28;20196;-89
2022/04/20 09:58:22;;;;;;;16.70;11.07;;;10.40;1.00;;;;;;5156308;27;20186;-91
2022/04/20 10:00:54;;;;;;;15.17;10.30;;;10.40;1.00;;;;;;5155934;28;20265;-91
2022/04/20 10:03:26;;;;;;;13.67;8.53;;;10.50;1.00;;;;;;5156174;28;20200;-91
2022/04/20 10:05:58;;;;;;;13.37;9.10;;;10.50;1.00;;;;;;5156360;27;20196;-90
2022/04/20 10:08:26;;;;;;;14.83;10.00;;;10.50;1.00;;;;;;5156066;28;20227;-92
2022/04/20 10:10:57;;;;;;;12.80;9.13;;;10.60;1.00;;;;;;5155634;27;20196;-90
2022/04/20 10:13:28;;;;;;;13.00;9.50;;;10.60;1.00;;;;;;5155638;28;20193;-93
2022/04/20 10:16:09;;;;;;;14.07;8.83;;;10.70;1.00;;;;;;5156438;28;20238;-94
2022/04/20 10:18:42;;;;;;;20.00;11.77;;;10.80;1.00;;;;;;5158206;27;20173;-90
2022/04/20 10:21:12;;;;;;;11.80;8.60;;;11.00;1.00;;;;;;5159159;27;20203;-92
2022/04/20 10:23:47;;;;;;;15.87;9.87;;;11.10;1.00;;;;;;5159750;27;20261;-92
2022/04/20 10:26:20;;;;;;;25.37;15.27;;;11.30;1.00;;;;;;5159608;27;20209;-93
2022/04/20 10:28:55;;;;;;;21.17;13.43;;;11.60;1.00;;;;;;5159698;27;20199;-89
2022/04/20 10:31:30;;;;;;;11.17;8.00;;;11.80;1.00;;;;;;5160144;27;20175;-92
2022/04/20 10:33:59;;;;;;;9.40;7.07;;;12.10;1.00;;;;;;5159834;27;20224;-92
2022/04/20 10:36:32;;;;;;;11.77;7.43;;;12.30;1.00;;;;;;5159250;27;20209;-92
2022/04/20 10:39:24;;;;;;;12.80;7.47;;;12.60;1.00;;;;;;5159363;27;20184;-92
2022/04/20 10:42:25;;;;;;;12.83;8.10;;;12.70;1.00;;;;;;5159913;27;20204;-90
2022/04/20 10:45:01;;;;;;;10.07;6.67;;;12.90;1.00;;;;;;5097214;28;20189;-90
2022/04/20 10:47:42;;;;;;;10.97;7.00;;;13.00;1.00;;;;;;5150834;27;20199;-91
2022/04/20 10:50:17;;;;;;;11.00;6.67;;;13.20;1.00;;;;;;5159196;27;20195;-90
2022/04/20 10:52:56;;;;;;;8.80;6.70;;;13.40;1.00;;;;;;5159534;27;20178;-89
2022/04/20 10:56:04;;;;;;;9.90;6.83;;;13.50;1.00;;;;;;5159341;27;20246;-91
2022/04/20 10:58:34;;;;;;;10.77;6.13;;;13.50;99.90;;;;;;5158511;27;20187;-88
2022/04/20 11:01:12;;;;;;;10.27;6.23;;;13.50;99.90;;;;;;5157926;27;20186;-92
2022/04/20 11:04:07;;;;;;;9.80;6.70;;;13.40;99.90;;;;;;5158210;27;20204;-89
2022/04/20 11:07:12;;;;;;;9.87;5.97;;;13.40;99.90;;;;;;5157512;27;20227;-91
2022/04/20 11:10:05;;;;;;;9.40;6.20;;;13.40;99.90;;;;;;5158990;27;20204;-90
2022/04/20 11:18:42;;;;;;;15.37;9.60;;;13.30;99.90;;;;;;5094772;28;20175;-89
2022/04/20 11:21:16;;;;;;;10.47;7.13;;;13.20;99.90;;;;;;5139399;27;20209;-92
2022/04/20 11:24:06;;;;;;;9.70;6.70;;;13.10;99.90;;;;;;5157813;27;20223;-89
2022/04/20 11:26:43;;;;;;;13.47;7.13;;;13.10;99.90;;;;;;5157961;27;20238;-93
2022/04/20 11:29:14;;;;;;;21.60;12.17;;;13.10;99.90;;;;;;5158355;27;20225;-90
2022/04/20 11:31:51;;;;;;;13.07;6.47;;;13.20;99.90;;;;;;5157967;27;20250;-89
2022/04/20 11:34:22;;;;;;;16.60;7.97;;;13.30;99.90;;;;;;5158674;27;20258;-94
2022/04/20 11:36:57;;;;;;;8.23;5.07;;;13.50;99.90;;;;;;5158545;27;20268;-90
2022/04/20 11:39:27;;;;;;;9.93;6.77;;;13.60;99.90;;;;;;5157937;27;20194;-88
2022/04/20 11:41:56;;;;;;;16.27;10.13;;;13.70;99.90;;;;;;5158378;27;20219;-93
2022/04/20 11:44:50;;;;;;;7.70;5.70;;;13.80;99.90;;;;;;5158312;27;20186;-89
2022/04/20 11:47:21;;;;;;;13.10;5.57;;;13.80;99.90;;;;;;5157221;27;20186;-90
2022/04/20 11:49:52;;;;;;;13.30;6.40;;;13.70;99.90;;;;;;5157775;27;20201;-89
2022/04/20 11:52:27;;;;;;;7.80;5.03;;;13.60;99.90;;;;;;5157880;27;20194;-87
2022/04/20 11:54:55;;;;;;;8.13;5.17;;;13.60;99.90;;;;;;5157803;27;20182;-91
2022/04/20 11:57:23;;;;;;;9.90;5.83;;;13.60;99.90;;;;;;5157513;27;20192;-91
2022/04/20 11:59:54;;;;;;;9.37;5.17;;;13.60;99.90;;;;;;5157167;27;20229;-91
2022/04/20 12:02:32;;;;;;;9.47;5.20;;;13.50;99.90;;;;;;5157649;27;20206;-90
2022/04/20 12:05:12;;;;;;;9.50;5.40;;;13.50;99.90;;;;;;5157374;27;20191;-92
2022/04/20 12:07:54;;;;;;;9.30;4.67;;;13.50;99.90;;;;;;5158220;27;20276;-90
2022/04/20 12:10:25;;;;;;;7.17;4.90;;;13.50;99.90;;;;;;5158337;27;20194;-93
2022/04/20 12:13:17;;;;;;;9.50;4.80;;;13.50;99.90;;;;;;5158295;27;20194;-89
2022/04/20 12:16:09;;;;;;;11.83;5.70;;;13.40;99.90;;;;;;5156936;27;20262;-91
2022/04/20 12:18:48;;;;;;;11.47;5.27;;;13.40;99.90;;;;;;5054182;28;20230;-91
2022/04/20 12:21:44;;;;;;;13.20;6.23;;;13.30;99.90;;;;;;5118149;27;20198;-92
2022/04/20 12:24:30;;;;;;;16.10;7.53;;;13.30;99.90;;;;;;5158409;27;20611;-91
2022/04/20 12:27:03;;;;;;;10.23;6.00;;;13.30;99.90;;;;;;5157715;27;20187;-91
2022/04/20 12:29:34;;;;;;;16.70;9.97;;;13.30;99.90;;;;;;5153828;27;20250;-88
2022/04/20 12:32:10;;;;;;;17.63;11.07;;;13.40;99.90;;;;;;5151300;27;20204;-85
2022/04/20 12:35:01;;;;;;;12.50;7.33;;;13.40;99.90;;;;;;5152361;27;20198;-88
2022/04/20 12:37:39;;;;;;;14.40;8.03;;;13.40;99.90;;;;;;5151805;27;20179;-87
2022/04/20 12:40:36;;;;;;;12.03;6.97;;;13.50;99.90;;;;;;5150072;27;20284;-85
2022/04/20 12:43:10;;;;;;;11.87;7.47;;;13.50;99.90;;;;;;5149154;27;20213;-85
2022/04/20 12:48:58;;;;;;;15.03;8.10;;;13.50;99.90;;;;;;5145846;27;20219;-89
2022/04/20 12:51:39;;;;;;;11.30;5.37;;;13.60;99.90;;;;;;5149951;27;20195;-88
2022/04/20 12:54:37;;;;;;;;;;;;;;;;;;;;;
2022/04/20 13:03:01;;;;;;;8.03;5.50;;;13.50;99.90;;;;;;5152563;27;20232;-86
2022/04/20 13:05:32;;;;;;;7.77;4.97;;;13.50;99.90;;;;;;5152693;27;20240;-88
2022/04/20 13:08:19;;;;;;;7.63;4.77;;;13.50;99.90;;;;;;5152117;27;20200;-88
2022/04/20 13:11:03;;;;;;;7.77;4.87;;;13.50;99.90;;;;;;5152238;27;20182;-89
2022/04/20 13:13:40;;;;;;;6.70;4.20;;;13.50;99.90;;;;;;5150052;27;20196;-86
2022/04/20 13:16:21;;;;;;;6.80;3.63;;;13.50;99.90;;;;;;5151234;27;20301;-86
2022/04/20 13:18:53;;;;;;;6.43;3.50;;;13.50;99.90;;;;;;5151559;27;20209;-91
2022/04/20 13:21:26;;;;;;;9.93;5.53;;;13.50;99.90;;;;;;5151829;28;20197;-89
2022/04/20 13:24:03;;;;;;;8.23;4.77;;;13.40;99.90;;;;;;5152358;28;20178;-87
2022/04/20 13:29:38;;;;;;;8.67;4.53;;;13.40;99.90;;;;;;5155802;28;20196;-89
2022/04/20 13:32:06;;;;;;;10.60;5.63;;;13.30;99.90;;;;;;5137985;28;20208;-85
2022/04/20 13:34:33;;;;;;;9.67;5.53;;;13.30;99.90;;;;;;5133060;28;20247;-87
2022/04/20 13:37:00;;;;;;;10.23;4.83;;;13.30;99.90;;;;;;5133059;28;20189;-86
2022/04/20 13:39:28;;;;;;;6.23;4.23;;;13.30;99.90;;;;;;5133119;28;20202;-86
2022/04/20 13:41:57;;;;;;;6.17;4.33;;;13.30;99.90;;;;;;5132971;27;20223;-88
2022/04/20 13:44:24;;;;;;;8.33;4.60;;;13.20;99.90;;;;;;5133115;27;20193;-87
2022/04/20 13:46:51;;;;;;;8.07;4.40;;;13.20;99.90;;;;;;5132592;28;20561;-87
2022/04/20 13:49:18;;;;;;;8.00;3.57;;;13.20;99.90;;;;;;5133441;27;20193;-87
2022/04/20 13:51:45;;;;;;;6.83;3.93;;;13.30;99.90;;;;;;5134277;27;20236;-85
2022/04/20 13:54:14;;;;;;;4.80;3.60;;;13.30;99.90;;;;;;5136827;27;20247;-87
2022/04/20 13:56:42;;;;;;;4.97;3.50;;;13.40;99.90;;;;;;5137000;27;20193;-87
2022/04/20 13:59:10;;;;;;;4.67;3.60;;;13.40;99.90;;;;;;5137087;27;20244;-87
2022/04/20 14:01:37;;;;;;;5.37;3.67;;;13.50;99.90;;;;;;5136517;27;20652;-86
2022/04/20 14:04:04;;;;;;;4.30;3.60;;;13.50;99.90;;;;;;5136827;27;20218;-87
2022/04/20 14:06:31;;;;;;;8.37;4.07;;;13.50;99.90;;;;;;5136871;27;20190;-87
2022/04/20 14:08:58;;;;;;;6.43;3.40;;;13.60;99.90;;;;;;5136765;27;20187;-87
2022/04/20 14:11:25;;;;;;;4.07;3.23;;;13.70;99.90;;;;;;5136487;27;20200;-87
2022/04/20 14:13:56;;;;;;;4.73;2.70;;;13.60;99.90;;;;;;5136343;27;20198;-86
2022/04/20 14:16:25;;;;;;;4.23;2.90;;;13.50;99.90;;;;;;5136290;27;20218;-88